sensor_id;sensor_type;location;lat;lon;timestamp;temperature;humidity
20946;DHT22;10632;51.276;7.116;2022-12-08T00:01:29;2.70;99.90
20946;DHT22;10632;51.276;7.116;2022-12-08T00:03:57;2.70;99.90
20946;DHT22;10632;51.276;7.116;2022-12-08T00:06:26;2.70;99.90
20946;DHT22;10632;51.276;7.116;2022-12-08T00:09:17;2.70;99.90
20946;DHT22;10632;51.276;7.116;2022-12-08T00:11:48;2.70;99.90
20946;DHT22;10632;51.276;7.116;2022-12-08T00:14:15;2.70;99.90
20946;DHT22;10632;51.276;7.116;2022-12-08T00:16:42;2.70;99.90
20946;DHT22;10632;51.276;7.116;2022-12-08T00:19:11;2.70;99.90
20946;DHT22;10632;51.276;7.116;2022-12-08T00:21:38;2.70;99.90
20946;DHT22;10632;51.276;7.116;2022-12-08T00:24:05;2.70;99.90
20946;DHT22;10632;51.276;7.116;2022-12-08T00:26:33;2.70;99.90
20946;DHT22;10632;51.276;7.116;2022-12-08T00:29:00;2.60;99.90
20946;DHT22;10632;51.276;7.116;2022-12-08T00:31:27;2.70;99.90
20946;DHT22;10632;51.276;7.116;2022-12-08T00:33:54;2.70;99.90
20946;DHT22;10632;51.276;7.116;2022-12-08T00:36:21;2.70;99.90
20946;DHT22;10632;51.276;7.116;2022-12-08T00:38:48;2.70;99.90
20946;DHT22;10632;51.276;7.116;2022-12-08T00:41:17;2.70;99.90
20946;DHT22;10632;51.276;7.116;2022-12-08T00:43:45;2.70;99.90
20946;DHT22;10632;51.276;7.116;2022-12-08T00:46:12;2.70;99.90
20946;DHT22;10632;51.276;7.116;2022-12-08T00:48:41;2.70;99.90
20946;DHT22;10632;51.276;7.116;2022-12-08T00:51:08;2.70;99.90
20946;DHT22;10632;51.276;7.116;2022-12-08T00:53:35;2.70;99.90
20946;DHT22;10632;51.276;7.116;2022-12-08T00:56:02;2.70;99.90
20946;DHT22;10632;51.276;7.116;2022-12-08T00:58:29;2.70;99.90
20946;DHT22;10632;51.276;7.116;2022-12-08T01:00:57;2.70;99.90
20946;DHT22;10632;51.276;7.116;2022-12-08T01:03:27;2.70;99.90
20946;DHT22;10632;51.276;7.116;2022-12-08T01:05:53;2.60;99.90
20946;DHT22;10632;51.276;7.116;2022-12-08T01:08:20;2.60;99.90
20946;DHT22;10632;51.276;7.116;2022-12-08T01:10:47;2.60;99.90
20946;DHT22;10632;51.276;7.116;2022-12-08T01:13:14;2.60;99.90
20946;DHT22;10632;51.276;7.116;2022-12-08T01:15:41;2.60;99.90
20946;DHT22;10632;51.276;7.116;2022-12-08T01:18:09;2.60;99.90
20946;DHT22;10632;51.276;7.116;2022-12-08T01:20:36;2.60;99.90
20946;DHT22;10632;51.276;7.116;2022-12-08T01:23:03;2.60;99.90
20946;DHT22;10632;51.276;7.116;2022-12-08T01:25:30;2.60;99.90
20946;DHT22;10632;51.276;7.116;2022-12-08T01:27:59;2.60;99.90
20946;DHT22;10632;51.276;7.116;2022-12-08T01:30:26;2.60;99.90
20946;DHT22;10632;51.276;7.116;2022-12-08T01:32:53;2.60;99.90
20946;DHT22;10632;51.276;7.116;2022-12-08T01:35:22;2.60;99.90
20946;DHT22;10632;51.276;7.116;2022-12-08T01:37:49;2.60;99.90
20946;DHT22;10632;51.276;7.116;2022-12-08T01:40:16;2.60;99.90
20946;DHT22;10632;51.276;7.116;2022-12-08T01:42:43;2.60;99.90
20946;DHT22;10632;51.276;7.116;2022-12-08T01:45:14;2.60;99.90
20946;DHT22;10632;51.276;7.116;2022-12-08T01:47:47;2.60;99.90
20946;DHT22;10632;51.276;7.116;2022-12-08T01:50:15;2.60;99.90
20946;DHT22;10632;51.276;7.116;2022-12-08T01:52:48;2.60;99.90
20946;DHT22;10632;51.276;7.116;2022-12-08T01:55:18;2.60;99.90
20946;DHT22;10632;51.276;7.116;2022-12-08T01:57:50;2.60;99.90
20946;DHT22;10632;51.276;7.116;2022-12-08T02:00:19;2.60;99.90
20946;DHT22;10632;51.276;7.116;2022-12-08T02:02:52;2.60;99.90
20946;DHT22;10632;51.276;7.116;2022-12-08T02:05:21;2.60;99.90
20946;DHT22;10632;51.276;7.116;2022-12-08T02:07:51;2.60;99.90
20946;DHT22;10632;51.276;7.116;2022-12-08T02:10:19;2.60;99.90
20946;DHT22;10632;51.276;7.116;2022-12-08T02:12:47;2.60;99.90
20946;DHT22;10632;51.276;7.116;2022-12-08T02:15:15;2.60;99.90
20946;DHT22;10632;51.276;7.116;2022-12-08T02:17:52;2.60;99.90
20946;DHT22;10632;51.276;7.116;2022-12-08T02:20:44;2.70;99.90
20946;DHT22;10632;51.276;7.116;2022-12-08T02:23:27;2.60;99.90
20946;DHT22;10632;51.276;7.116;2022-12-08T02:29:23;2.70;99.90
20946;DHT22;10632;51.276;7.116;2022-12-08T02:32:06;2.70;99.90
20946;DHT22;10632;51.276;7.116;2022-12-08T02:34:48;2.70;99.90
20946;DHT22;10632;51.276;7.116;2022-12-08T02:37:24;2.70;99.90
20946;DHT22;10632;51.276;7.116;2022-12-08T02:40:00;2.70;99.90
20946;DHT22;10632;51.276;7.116;2022-12-08T02:42:34;2.60;99.90
20946;DHT22;10632;51.276;7.116;2022-12-08T02:45:11;2.60;99.90
20946;DHT22;10632;51.276;7.116;2022-12-08T02:47:40;2.60;99.90
20946;DHT22;10632;51.276;7.116;2022-12-08T02:50:11;2.60;99.90
20946;DHT22;10632;51.276;7.116;2022-12-08T02:52:40;2.60;99.90
20946;DHT22;10632;51.276;7.116;2022-12-08T02:55:16;2.70;99.90
20946;DHT22;10632;51.276;7.116;2022-12-08T02:57:57;2.60;99.90
20946;DHT22;10632;51.276;7.116;2022-12-08T03:00:30;2.70;99.90
20946;DHT22;10632;51.276;7.116;2022-12-08T03:03:06;2.70;99.90
20946;DHT22;10632;51.276;7.116;2022-12-08T03:05:51;2.70;99.90
20946;DHT22;10632;51.276;7.116;2022-12-08T03:08:26;2.60;99.90
20946;DHT22;10632;51.276;7.116;2022-12-08T03:11:00;2.70;99.90
20946;DHT22;10632;51.276;7.116;2022-12-08T03:13:33;2.60;99.90
20946;DHT22;10632;51.276;7.116;2022-12-08T03:16:03;2.60;99.90
20946;DHT22;10632;51.276;7.116;2022-12-08T03:18:36;2.60;99.90
20946;DHT22;10632;51.276;7.116;2022-12-08T03:21:06;2.60;99.90
20946;DHT22;10632;51.276;7.116;2022-12-08T03:23:35;2.60;99.90
20946;DHT22;10632;51.276;7.116;2022-12-08T03:26:07;2.60;99.90
20946;DHT22;10632;51.276;7.116;2022-12-08T03:28:36;2.60;99.90
20946;DHT22;10632;51.276;7.116;2022-12-08T03:31:06;2.60;99.90
20946;DHT22;10632;51.276;7.116;2022-12-08T03:33:38;2.60;99.90
20946;DHT22;10632;51.276;7.116;2022-12-08T03:36:16;2.60;99.90
20946;DHT22;10632;51.276;7.116;2022-12-08T03:38:45;2.60;99.90
20946;DHT22;10632;51.276;7.116;2022-12-08T03:41:12;2.60;99.90
20946;DHT22;10632;51.276;7.116;2022-12-08T03:43:45;2.60;99.90
20946;DHT22;10632;51.276;7.116;2022-12-08T03:46:13;2.60;99.90
20946;DHT22;10632;51.276;7.116;2022-12-08T03:48:40;2.60;99.90
20946;DHT22;10632;51.276;7.116;2022-12-08T03:51:08;2.60;99.90
20946;DHT22;10632;51.276;7.116;2022-12-08T03:53:35;2.60;99.90
20946;DHT22;10632;51.276;7.116;2022-12-08T03:56:03;2.60;99.90
20946;DHT22;10632;51.276;7.116;2022-12-08T03:58:30;2.60;99.90
20946;DHT22;10632;51.276;7.116;2022-12-08T04:00:57;2.60;99.90
20946;DHT22;10632;51.276;7.116;2022-12-08T04:03:23;2.60;99.90
20946;DHT22;10632;51.276;7.116;2022-12-08T04:05:50;2.60;99.90
20946;DHT22;10632;51.276;7.116;2022-12-08T04:08:19;2.60;99.90
20946;DHT22;10632;51.276;7.116;2022-12-08T04:10:45;2.60;99.90
20946;DHT22;10632;51.276;7.116;2022-12-08T04:13:12;2.60;99.90
20946;DHT22;10632;51.276;7.116;2022-12-08T04:15:44;2.60;99.90
20946;DHT22;10632;51.276;7.116;2022-12-08T04:18:11;2.60;99.90
20946;DHT22;10632;51.276;7.116;2022-12-08T04:20:38;2.60;99.90
20946;DHT22;10632;51.276;7.116;2022-12-08T04:23:05;2.60;99.90
20946;DHT22;10632;51.276;7.116;2022-12-08T04:25:35;2.60;99.90
20946;DHT22;10632;51.276;7.116;2022-12-08T04:28:02;2.60;99.90
20946;DHT22;10632;51.276;7.116;2022-12-08T04:30:29;2.60;99.90
20946;DHT22;10632;51.276;7.116;2022-12-08T04:32:56;2.60;99.90
20946;DHT22;10632;51.276;7.116;2022-12-08T04:35:23;2.60;99.90
20946;DHT22;10632;51.276;7.116;2022-12-08T04:37:50;2.60;99.90
20946;DHT22;10632;51.276;7.116;2022-12-08T04:40:17;2.60;99.90
20946;DHT22;10632;51.276;7.116;2022-12-08T04:42:46;2.60;99.90
20946;DHT22;10632;51.276;7.116;2022-12-08T04:45:13;2.50;99.90
20946;DHT22;10632;51.276;7.116;2022-12-08T04:47:40;2.60;99.90
20946;DHT22;10632;51.276;7.116;2022-12-08T04:50:08;2.60;99.90
20946;DHT22;10632;51.276;7.116;2022-12-08T04:52:35;2.60;99.90
20946;DHT22;10632;51.276;7.116;2022-12-08T04:55:02;2.60;99.90
20946;DHT22;10632;51.276;7.116;2022-12-08T04:57:29;2.60;99.90
20946;DHT22;10632;51.276;7.116;2022-12-08T04:59:58;2.60;99.90
20946;DHT22;10632;51.276;7.116;2022-12-08T05:02:25;2.60;99.90
20946;DHT22;10632;51.276;7.116;2022-12-08T05:04:52;2.60;99.90
20946;DHT22;10632;51.276;7.116;2022-12-08T05:07:21;2.60;99.90
20946;DHT22;10632;51.276;7.116;2022-12-08T05:09:48;2.60;99.90
20946;DHT22;10632;51.276;7.116;2022-12-08T05:12:15;2.50;99.90
20946;DHT22;10632;51.276;7.116;2022-12-08T05:14:42;2.50;99.90
20946;DHT22;10632;51.276;7.116;2022-12-08T05:17:10;2.60;99.90
20946;DHT22;10632;51.276;7.116;2022-12-08T05:19:37;2.50;99.90
20946;DHT22;10632;51.276;7.116;2022-12-08T05:22:04;2.50;99.90
20946;DHT22;10632;51.276;7.116;2022-12-08T05:24:31;2.60;99.90
20946;DHT22;10632;51.276;7.116;2022-12-08T05:26:58;2.60;99.90
20946;DHT22;10632;51.276;7.116;2022-12-08T05:29:25;2.60;99.90
20946;DHT22;10632;51.276;7.116;2022-12-08T05:31:54;2.50;99.90
20946;DHT22;10632;51.276;7.116;2022-12-08T05:34:25;2.50;99.90
20946;DHT22;10632;51.276;7.116;2022-12-08T05:36:52;2.60;99.90
20946;DHT22;10632;51.276;7.116;2022-12-08T05:39:19;2.50;99.90
20946;DHT22;10632;51.276;7.116;2022-12-08T05:41:46;2.60;99.90
20946;DHT22;10632;51.276;7.116;2022-12-08T05:44:13;2.50;99.90
20946;DHT22;10632;51.276;7.116;2022-12-08T05:46:40;2.50;99.90
20946;DHT22;10632;51.276;7.116;2022-12-08T05:49:07;2.50;99.90
20946;DHT22;10632;51.276;7.116;2022-12-08T05:51:35;2.50;99.90
20946;DHT22;10632;51.276;7.116;2022-12-08T05:54:02;2.60;99.90
20946;DHT22;10632;51.276;7.116;2022-12-08T05:56:29;2.60;99.90
20946;DHT22;10632;51.276;7.116;2022-12-08T05:58:56;2.60;99.90
20946;DHT22;10632;51.276;7.116;2022-12-08T06:01:25;2.60;99.90
20946;DHT22;10632;51.276;7.116;2022-12-08T06:03:53;2.60;99.90
20946;DHT22;10632;51.276;7.116;2022-12-08T06:06:20;2.60;99.90
20946;DHT22;10632;51.276;7.116;2022-12-08T06:08:49;2.60;99.90
20946;DHT22;10632;51.276;7.116;2022-12-08T06:11:17;2.60;99.90
20946;DHT22;10632;51.276;7.116;2022-12-08T06:13:44;2.60;99.90
20946;DHT22;10632;51.276;7.116;2022-12-08T06:16:11;2.60;99.90
20946;DHT22;10632;51.276;7.116;2022-12-08T06:18:38;2.60;99.90
20946;DHT22;10632;51.276;7.116;2022-12-08T06:21:06;2.60;99.90
20946;DHT22;10632;51.276;7.116;2022-12-08T06:23:34;2.60;99.90
20946;DHT22;10632;51.276;7.116;2022-12-08T06:26:03;2.60;99.90
20946;DHT22;10632;51.276;7.116;2022-12-08T06:28:31;2.60;99.90
20946;DHT22;10632;51.276;7.116;2022-12-08T06:30:58;2.60;99.90
20946;DHT22;10632;51.276;7.116;2022-12-08T06:33:25;2.60;99.90
20946;DHT22;10632;51.276;7.116;2022-12-08T06:35:52;2.60;99.90
20946;DHT22;10632;51.276;7.116;2022-12-08T06:38:19;2.60;99.90
20946;DHT22;10632;51.276;7.116;2022-12-08T06:40:52;2.60;99.90
20946;DHT22;10632;51.276;7.116;2022-12-08T06:43:21;2.60;99.90
20946;DHT22;10632;51.276;7.116;2022-12-08T06:45:47;2.50;99.90
20946;DHT22;10632;51.276;7.116;2022-12-08T06:48:18;2.60;99.90
20946;DHT22;10632;51.276;7.116;2022-12-08T06:50:45;2.60;99.90
20946;DHT22;10632;51.276;7.116;2022-12-08T06:53:12;2.60;99.90
20946;DHT22;10632;51.276;7.116;2022-12-08T06:55:42;2.60;99.90
20946;DHT22;10632;51.276;7.116;2022-12-08T06:58:10;2.70;99.90
20946;DHT22;10632;51.276;7.116;2022-12-08T07:00:38;2.70;99.90
20946;DHT22;10632;51.276;7.116;2022-12-08T07:03:07;2.60;99.90
20946;DHT22;10632;51.276;7.116;2022-12-08T07:05:35;2.60;99.90
20946;DHT22;10632;51.276;7.116;2022-12-08T07:08:02;2.60;99.90
20946;DHT22;10632;51.276;7.116;2022-12-08T07:10:29;2.60;99.90
20946;DHT22;10632;51.276;7.116;2022-12-08T07:12:56;2.60;99.90
20946;DHT22;10632;51.276;7.116;2022-12-08T07:15:23;2.50;99.90
20946;DHT22;10632;51.276;7.116;2022-12-08T07:17:51;2.50;99.90
20946;DHT22;10632;51.276;7.116;2022-12-08T07:20:18;2.50;99.90
20946;DHT22;10632;51.276;7.116;2022-12-08T07:22:49;2.50;99.90
20946;DHT22;10632;51.276;7.116;2022-12-08T07:25:16;2.50;99.90
20946;DHT22;10632;51.276;7.116;2022-12-08T07:27:43;2.50;99.90
20946;DHT22;10632;51.276;7.116;2022-12-08T07:30:11;2.40;99.90
20946;DHT22;10632;51.276;7.116;2022-12-08T07:32:38;2.50;99.90
20946;DHT22;10632;51.276;7.116;2022-12-08T07:35:08;2.40;99.90
20946;DHT22;10632;51.276;7.116;2022-12-08T07:37:35;2.40;99.90
20946;DHT22;10632;51.276;7.116;2022-12-08T07:40:03;2.40;99.90
20946;DHT22;10632;51.276;7.116;2022-12-08T07:42:30;2.30;99.90
20946;DHT22;10632;51.276;7.116;2022-12-08T07:45:00;2.30;99.90
20946;DHT22;10632;51.276;7.116;2022-12-08T07:47:27;2.30;99.90
20946;DHT22;10632;51.276;7.116;2022-12-08T07:49:54;2.30;99.90
20946;DHT22;10632;51.276;7.116;2022-12-08T07:52:22;2.30;99.90
20946;DHT22;10632;51.276;7.116;2022-12-08T07:54:49;2.30;99.90
20946;DHT22;10632;51.276;7.116;2022-12-08T07:57:16;2.30;99.90
20946;DHT22;10632;51.276;7.116;2022-12-08T07:59:43;2.30;99.90
20946;DHT22;10632;51.276;7.116;2022-12-08T08:02:15;2.30;99.90
20946;DHT22;10632;51.276;7.116;2022-12-08T08:04:43;2.30;99.90
20946;DHT22;10632;51.276;7.116;2022-12-08T08:07:10;2.30;99.90
20946;DHT22;10632;51.276;7.116;2022-12-08T08:09:38;2.20;99.90
20946;DHT22;10632;51.276;7.116;2022-12-08T08:12:05;2.20;99.90
20946;DHT22;10632;51.276;7.116;2022-12-08T08:14:32;2.20;99.90
20946;DHT22;10632;51.276;7.116;2022-12-08T08:16:59;2.20;99.90
20946;DHT22;10632;51.276;7.116;2022-12-08T08:19:26;2.20;99.90
20946;DHT22;10632;51.276;7.116;2022-12-08T08:21:53;2.10;99.90
20946;DHT22;10632;51.276;7.116;2022-12-08T08:24:20;2.10;99.90
20946;DHT22;10632;51.276;7.116;2022-12-08T08:26:50;2.10;99.90
20946;DHT22;10632;51.276;7.116;2022-12-08T08:29:18;2.00;99.90
20946;DHT22;10632;51.276;7.116;2022-12-08T08:31:44;2.00;99.90
20946;DHT22;10632;51.276;7.116;2022-12-08T08:34:11;2.00;99.90
20946;DHT22;10632;51.276;7.116;2022-12-08T08:36:38;2.00;99.90
20946;DHT22;10632;51.276;7.116;2022-12-08T08:39:05;2.00;99.90
20946;DHT22;10632;51.276;7.116;2022-12-08T08:41:32;1.90;99.90
20946;DHT22;10632;51.276;7.116;2022-12-08T08:44:01;2.00;99.90
20946;DHT22;10632;51.276;7.116;2022-12-08T08:46:32;1.90;99.90
20946;DHT22;10632;51.276;7.116;2022-12-08T08:48:59;1.90;99.90
20946;DHT22;10632;51.276;7.116;2022-12-08T08:51:26;1.90;99.90
20946;DHT22;10632;51.276;7.116;2022-12-08T08:53:53;1.90;99.90
20946;DHT22;10632;51.276;7.116;2022-12-08T08:56:20;1.90;99.90
20946;DHT22;10632;51.276;7.116;2022-12-08T08:58:48;1.90;99.90
20946;DHT22;10632;51.276;7.116;2022-12-08T09:01:18;1.90;99.90
20946;DHT22;10632;51.276;7.116;2022-12-08T09:03:45;1.90;99.90
20946;DHT22;10632;51.276;7.116;2022-12-08T09:06:13;1.90;99.90
20946;DHT22;10632;51.276;7.116;2022-12-08T09:08:40;1.90;99.90
20946;DHT22;10632;51.276;7.116;2022-12-08T09:11:08;1.80;99.90
20946;DHT22;10632;51.276;7.116;2022-12-08T09:13:35;1.80;99.90
20946;DHT22;10632;51.276;7.116;2022-12-08T09:16:03;1.80;99.90
20946;DHT22;10632;51.276;7.116;2022-12-08T09:18:32;1.80;99.90
20946;DHT22;10632;51.276;7.116;2022-12-08T09:21:03;1.70;99.90
20946;DHT22;10632;51.276;7.116;2022-12-08T09:23:30;1.70;99.90
20946;DHT22;10632;51.276;7.116;2022-12-08T09:25:57;1.70;99.90
20946;DHT22;10632;51.276;7.116;2022-12-08T09:28:23;1.70;99.90
20946;DHT22;10632;51.276;7.116;2022-12-08T09:30:51;1.70;99.90
20946;DHT22;10632;51.276;7.116;2022-12-08T09:33:18;1.60;99.90
20946;DHT22;10632;51.276;7.116;2022-12-08T09:35:47;1.60;99.90
20946;DHT22;10632;51.276;7.116;2022-12-08T09:38:14;1.60;99.90
20946;DHT22;10632;51.276;7.116;2022-12-08T09:40:47;1.60;99.90
20946;DHT22;10632;51.276;7.116;2022-12-08T09:43:28;1.60;99.90
20946;DHT22;10632;51.276;7.116;2022-12-08T09:46:03;1.60;99.90
20946;DHT22;10632;51.276;7.116;2022-12-08T09:48:34;1.60;99.90
20946;DHT22;10632;51.276;7.116;2022-12-08T09:51:05;1.70;99.90
20946;DHT22;10632;51.276;7.116;2022-12-08T09:53:35;1.70;99.90
20946;DHT22;10632;51.276;7.116;2022-12-08T09:56:07;1.80;99.90
20946;DHT22;10632;51.276;7.116;2022-12-08T09:58:43;1.80;99.90
20946;DHT22;10632;51.276;7.116;2022-12-08T10:01:12;1.90;99.90
20946;DHT22;10632;51.276;7.116;2022-12-08T10:03:41;1.90;99.90
20946;DHT22;10632;51.276;7.116;2022-12-08T10:06:17;1.90;99.90
20946;DHT22;10632;51.276;7.116;2022-12-08T10:08:53;2.00;99.90
20946;DHT22;10632;51.276;7.116;2022-12-08T10:11:26;2.00;99.90
20946;DHT22;10632;51.276;7.116;2022-12-08T10:14:02;2.00;99.90
20946;DHT22;10632;51.276;7.116;2022-12-08T10:16:34;2.00;99.90
20946;DHT22;10632;51.276;7.116;2022-12-08T10:19:11;2.00;99.90
20946;DHT22;10632;51.276;7.116;2022-12-08T10:21:40;2.10;99.90
20946;DHT22;10632;51.276;7.116;2022-12-08T10:24:15;2.10;99.90
20946;DHT22;10632;51.276;7.116;2022-12-08T10:26:44;2.10;99.90
20946;DHT22;10632;51.276;7.116;2022-12-08T10:29:13;2.10;99.90
20946;DHT22;10632;51.276;7.116;2022-12-08T10:31:40;2.10;99.90
20946;DHT22;10632;51.276;7.116;2022-12-08T10:34:15;2.10;99.90
20946;DHT22;10632;51.276;7.116;2022-12-08T10:36:48;2.10;99.90
20946;DHT22;10632;51.276;7.116;2022-12-08T10:39:33;2.10;99.90
20946;DHT22;10632;51.276;7.116;2022-12-08T10:42:05;2.10;99.90
20946;DHT22;10632;51.276;7.116;2022-12-08T10:44:32;2.10;99.90
20946;DHT22;10632;51.276;7.116;2022-12-08T10:47:10;2.20;99.90
20946;DHT22;10632;51.276;7.116;2022-12-08T10:49:37;2.20;99.90
20946;DHT22;10632;51.276;7.116;2022-12-08T10:52:13;2.20;99.90
20946;DHT22;10632;51.276;7.116;2022-12-08T10:54:51;2.20;99.90
20946;DHT22;10632;51.276;7.116;2022-12-08T10:57:20;2.20;99.90
20946;DHT22;10632;51.276;7.116;2022-12-08T10:59:50;2.20;99.90
20946;DHT22;10632;51.276;7.116;2022-12-08T11:02:21;2.20;99.90
20946;DHT22;10632;51.276;7.116;2022-12-08T11:04:56;2.10;99.90
20946;DHT22;10632;51.276;7.116;2022-12-08T11:07:26;2.10;99.90
20946;DHT22;10632;51.276;7.116;2022-12-08T11:09:56;2.10;99.90
20946;DHT22;10632;51.276;7.116;2022-12-08T11:12:27;2.10;99.90
20946;DHT22;10632;51.276;7.116;2022-12-08T11:14:56;2.10;99.90
20946;DHT22;10632;51.276;7.116;2022-12-08T11:17:29;2.10;99.90
20946;DHT22;10632;51.276;7.116;2022-12-08T11:20:20;2.20;99.90
20946;DHT22;10632;51.276;7.116;2022-12-08T11:22:52;2.20;99.90
20946;DHT22;10632;51.276;7.116;2022-12-08T11:25:21;2.20;99.90
20946;DHT22;10632;51.276;7.116;2022-12-08T11:27:50;2.20;99.90
20946;DHT22;10632;51.276;7.116;2022-12-08T11:30:22;2.20;99.90
20946;DHT22;10632;51.276;7.116;2022-12-08T11:32:53;2.20;99.90
20946;DHT22;10632;51.276;7.116;2022-12-08T11:35:24;2.20;99.90
20946;DHT22;10632;51.276;7.116;2022-12-08T11:37:56;2.30;99.90
20946;DHT22;10632;51.276;7.116;2022-12-08T11:40:28;2.30;99.90
20946;DHT22;10632;51.276;7.116;2022-12-08T11:43:04;2.30;99.90
20946;DHT22;10632;51.276;7.116;2022-12-08T11:45:35;2.30;99.90
20946;DHT22;10632;51.276;7.116;2022-12-08T11:48:11;2.40;99.90
20946;DHT22;10632;51.276;7.116;2022-12-08T11:50:42;2.40;99.90
20946;DHT22;10632;51.276;7.116;2022-12-08T11:53:21;2.40;99.90
20946;DHT22;10632;51.276;7.116;2022-12-08T11:55:54;2.30;99.90
20946;DHT22;10632;51.276;7.116;2022-12-08T11:58:25;2.40;99.90
20946;DHT22;10632;51.276;7.116;2022-12-08T12:00:54;2.40;99.90
20946;DHT22;10632;51.276;7.116;2022-12-08T12:03:28;2.40;99.90
20946;DHT22;10632;51.276;7.116;2022-12-08T12:06:20;2.40;99.90
20946;DHT22;10632;51.276;7.116;2022-12-08T12:09:10;2.40;99.90
20946;DHT22;10632;51.276;7.116;2022-12-08T12:11:56;2.40;99.90
20946;DHT22;10632;51.276;7.116;2022-12-08T12:17:46;2.40;99.90
20946;DHT22;10632;51.276;7.116;2022-12-08T12:20:22;2.40;99.90
20946;DHT22;10632;51.276;7.116;2022-12-08T12:22:55;2.40;99.90
20946;DHT22;10632;51.276;7.116;2022-12-08T12:25:26;2.40;99.90
20946;DHT22;10632;51.276;7.116;2022-12-08T12:27:58;2.40;99.90
20946;DHT22;10632;51.276;7.116;2022-12-08T12:30:34;2.40;99.90
20946;DHT22;10632;51.276;7.116;2022-12-08T12:33:15;2.30;99.90
20946;DHT22;10632;51.276;7.116;2022-12-08T12:35:44;2.30;99.90
20946;DHT22;10632;51.276;7.116;2022-12-08T12:38:21;2.20;99.90
20946;DHT22;10632;51.276;7.116;2022-12-08T12:41:10;2.20;99.90
20946;DHT22;10632;51.276;7.116;2022-12-08T12:43:38;2.20;99.90
20946;DHT22;10632;51.276;7.116;2022-12-08T12:46:37;2.20;99.90
20946;DHT22;10632;51.276;7.116;2022-12-08T12:52:35;2.20;99.90
20946;DHT22;10632;51.276;7.116;2022-12-08T12:58:40;2.20;99.90
20946;DHT22;10632;51.276;7.116;2022-12-08T13:04:31;2.30;99.90
20946;DHT22;10632;51.276;7.116;2022-12-08T13:07:00;2.30;99.90
20946;DHT22;10632;51.276;7.116;2022-12-08T13:09:30;2.30;99.90
20946;DHT22;10632;51.276;7.116;2022-12-08T13:12:00;2.30;99.90
20946;DHT22;10632;51.276;7.116;2022-12-08T13:14:34;2.30;99.90
20946;DHT22;10632;51.276;7.116;2022-12-08T13:17:04;2.30;99.90
20946;DHT22;10632;51.276;7.116;2022-12-08T13:19:36;2.30;99.90
20946;DHT22;10632;51.276;7.116;2022-12-08T13:28:21;2.30;99.90
20946;DHT22;10632;51.276;7.116;2022-12-08T13:30:50;2.40;99.90
20946;DHT22;10632;51.276;7.116;2022-12-08T13:33:25;2.40;99.90
20946;DHT22;10632;51.276;7.116;2022-12-08T13:36:06;2.30;99.90
20946;DHT22;10632;51.276;7.116;2022-12-08T13:38:37;2.30;99.90
20946;DHT22;10632;51.276;7.116;2022-12-08T13:41:14;2.30;99.90
20946;DHT22;10632;51.276;7.116;2022-12-08T13:43:44;2.30;99.90
20946;DHT22;10632;51.276;7.116;2022-12-08T13:46:16;2.30;99.90
20946;DHT22;10632;51.276;7.116;2022-12-08T13:48:50;2.40;99.90
20946;DHT22;10632;51.276;7.116;2022-12-08T13:51:20;2.40;99.90
20946;DHT22;10632;51.276;7.116;2022-12-08T13:53:57;2.40;99.90
20946;DHT22;10632;51.276;7.116;2022-12-08T13:56:25;2.40;99.90
20946;DHT22;10632;51.276;7.116;2022-12-08T13:59:06;2.40;99.90
20946;DHT22;10632;51.276;7.116;2022-12-08T14:01:40;2.40;99.90
20946;DHT22;10632;51.276;7.116;2022-12-08T14:04:14;2.40;99.90
20946;DHT22;10632;51.276;7.116;2022-12-08T14:06:43;2.40;99.90
20946;DHT22;10632;51.276;7.116;2022-12-08T14:09:12;2.40;99.90
20946;DHT22;10632;51.276;7.116;2022-12-08T14:11:42;2.40;99.90
20946;DHT22;10632;51.276;7.116;2022-12-08T14:14:16;2.40;99.90
20946;DHT22;10632;51.276;7.116;2022-12-08T14:16:52;2.40;99.90
20946;DHT22;10632;51.276;7.116;2022-12-08T14:19:23;2.40;99.90
20946;DHT22;10632;51.276;7.116;2022-12-08T14:21:55;2.40;99.90
20946;DHT22;10632;51.276;7.116;2022-12-08T14:24:22;2.40;99.90
20946;DHT22;10632;51.276;7.116;2022-12-08T14:26:51;2.40;99.90
20946;DHT22;10632;51.276;7.116;2022-12-08T14:29:40;2.40;99.90
20946;DHT22;10632;51.276;7.116;2022-12-08T14:32:25;2.50;99.90
20946;DHT22;10632;51.276;7.116;2022-12-08T14:34:54;2.50;99.90
20946;DHT22;10632;51.276;7.116;2022-12-08T14:37:21;2.50;99.90
20946;DHT22;10632;51.276;7.116;2022-12-08T14:39:50;2.50;99.90
20946;DHT22;10632;51.276;7.116;2022-12-08T14:42:21;2.50;99.90
20946;DHT22;10632;51.276;7.116;2022-12-08T14:44:57;2.50;99.90
20946;DHT22;10632;51.276;7.116;2022-12-08T14:47:30;2.60;99.90
20946;DHT22;10632;51.276;7.116;2022-12-08T14:49:57;2.60;99.90
20946;DHT22;10632;51.276;7.116;2022-12-08T14:52:25;2.60;99.90
20946;DHT22;10632;51.276;7.116;2022-12-08T14:54:52;2.60;99.90
20946;DHT22;10632;51.276;7.116;2022-12-08T14:57:20;2.50;99.90
20946;DHT22;10632;51.276;7.116;2022-12-08T14:59:50;2.50;99.90
20946;DHT22;10632;51.276;7.116;2022-12-08T15:02:25;2.50;99.90
20946;DHT22;10632;51.276;7.116;2022-12-08T15:05:00;2.50;99.90
20946;DHT22;10632;51.276;7.116;2022-12-08T15:07:29;2.50;99.90
20946;DHT22;10632;51.276;7.116;2022-12-08T15:10:17;2.40;99.90
20946;DHT22;10632;51.276;7.116;2022-12-08T15:12:57;2.40;99.90
20946;DHT22;10632;51.276;7.116;2022-12-08T15:15:24;2.40;99.90
20946;DHT22;10632;51.276;7.116;2022-12-08T15:18:01;2.40;99.90
20946;DHT22;10632;51.276;7.116;2022-12-08T15:20:39;2.40;99.90
20946;DHT22;10632;51.276;7.116;2022-12-08T15:23:22;2.30;99.90
20946;DHT22;10632;51.276;7.116;2022-12-08T15:25:50;2.40;99.90
20946;DHT22;10632;51.276;7.116;2022-12-08T15:28:19;2.30;99.90
20946;DHT22;10632;51.276;7.116;2022-12-08T15:30:47;2.30;99.90
20946;DHT22;10632;51.276;7.116;2022-12-08T15:33:17;2.30;99.90
20946;DHT22;10632;51.276;7.116;2022-12-08T15:35:46;2.30;99.90
20946;DHT22;10632;51.276;7.116;2022-12-08T15:38:19;2.30;99.90
20946;DHT22;10632;51.276;7.116;2022-12-08T15:40:47;2.30;99.90
20946;DHT22;10632;51.276;7.116;2022-12-08T15:43:14;2.30;99.90
20946;DHT22;10632;51.276;7.116;2022-12-08T15:45:41;2.30;99.90
20946;DHT22;10632;51.276;7.116;2022-12-08T15:48:17;2.30;99.90
20946;DHT22;10632;51.276;7.116;2022-12-08T15:50:52;2.30;99.90
20946;DHT22;10632;51.276;7.116;2022-12-08T15:53:19;2.30;99.90
20946;DHT22;10632;51.276;7.116;2022-12-08T15:55:46;2.30;99.90
20946;DHT22;10632;51.276;7.116;2022-12-08T15:58:20;2.30;99.90
20946;DHT22;10632;51.276;7.116;2022-12-08T16:00:47;2.30;99.90
20946;DHT22;10632;51.276;7.116;2022-12-08T16:03:19;2.30;99.90
20946;DHT22;10632;51.276;7.116;2022-12-08T16:05:48;2.20;99.90
20946;DHT22;10632;51.276;7.116;2022-12-08T16:08:15;2.20;99.90
20946;DHT22;10632;51.276;7.116;2022-12-08T16:10:43;2.20;99.90
20946;DHT22;10632;51.276;7.116;2022-12-08T16:13:13;2.20;99.90
20946;DHT22;10632;51.276;7.116;2022-12-08T16:15:59;2.20;99.90
20946;DHT22;10632;51.276;7.116;2022-12-08T16:18:28;2.20;99.90
20946;DHT22;10632;51.276;7.116;2022-12-08T16:20:57;2.30;99.90
20946;DHT22;10632;51.276;7.116;2022-12-08T16:23:24;2.30;99.90
20946;DHT22;10632;51.276;7.116;2022-12-08T16:25:51;2.30;99.90
20946;DHT22;10632;51.276;7.116;2022-12-08T16:28:18;2.20;99.90